createdAt,value
2017-11-20T00:01:42.430Z,4.9
2017-11-20T00:02:41.870Z,4.9
2017-11-20T00:03:40.696Z,4.9
2017-11-20T00:04:39.402Z,4.9
2017-11-20T00:06:37.484Z,4.9
2017-11-20T00:11:32.941Z,4.9
2017-11-20T00:12:32.246Z,4.9
2017-11-20T00:14:30.047Z,4.9
2017-11-20T00:16:28.247Z,5
2017-11-20T00:17:26.824Z,5
2017-11-20T00:19:25.132Z,5
2017-11-20T00:20:24.456Z,5
2017-11-20T00:23:21.419Z,5
2017-11-20T00:24:20.117Z,5
2017-11-20T00:26:18.425Z,5
2017-11-20T00:28:16.615Z,5
2017-11-20T00:28:47.005Z,5
2017-11-20T00:29:17.735Z,5
2017-11-20T00:29:48.243Z,5
2017-11-20T00:30:18.866Z,5
2017-11-20T00:30:49.507Z,5
2017-11-20T00:32:12.348Z,5
2017-11-20T00:33:11.536Z,5
2017-11-20T00:37:07.883Z,5
2017-11-20T00:38:06.570Z,5
2017-11-20T00:41:03.919Z,5
2017-11-20T00:43:02.005Z,5
2017-11-20T00:44:01.355Z,5
2017-11-20T00:45:59.141Z,5
2017-11-20T00:46:58.456Z,5
2017-11-20T00:48:55.913Z,5
2017-11-20T00:49:55.104Z,5
2017-11-20T00:59:45.868Z,4.9
2017-11-20T01:00:44.664Z,4.9
2017-11-20T01:02:42.881Z,4.8
2017-11-20T01:03:41.678Z,4.8
2017-11-20T01:05:39.633Z,4.8
2017-11-20T01:10:34.974Z,4.7
2017-11-20T01:11:05.484Z,4.7
2017-11-20T01:13:32.474Z,4.7
2017-11-20T01:19:26.079Z,4.6
2017-11-20T01:19:56.699Z,4.6
2017-11-20T01:20:27.445Z,4.6
2017-11-20T01:20:57.454Z,4.6
2017-11-20T01:25:20.573Z,4.7
2017-11-20T01:27:18.767Z,4.7
2017-11-20T01:28:17.598Z,4.7
2017-11-20T01:31:14.576Z,4.7
2017-11-20T01:32:13.885Z,4.7
2017-11-20T01:33:12.468Z,4.7
2017-11-20T01:35:11.274Z,4.7
2017-11-20T01:36:10.084Z,4.7
2017-11-20T01:39:07.046Z,4.8
2017-11-20T01:42:04.121Z,4.8
2017-11-20T01:45:01.311Z,4.8
2017-11-20T01:46:00.029Z,4.8
2017-11-20T01:47:58.250Z,4.8
2017-11-20T01:49:56.549Z,4.8
2017-11-20T01:50:26.665Z,4.8
2017-11-20T01:50:57.169Z,4.8
2017-11-20T01:51:27.684Z,4.8
2017-11-20T01:52:53.550Z,4.9
2017-11-20T01:53:52.128Z,4.9
2017-11-20T01:57:48.487Z,4.9
2017-11-20T02:03:42.708Z,4.9
2017-11-20T02:08:38.174Z,4.9
2017-11-20T02:11:35.360Z,4.9
2017-11-20T02:12:34.050Z,4.9
2017-11-20T02:14:32.251Z,4.9
2017-11-20T02:17:32.349Z,4.9
2017-11-20T02:17:34.275Z,4.9
2017-11-20T02:20:26.306Z,4.9
2017-11-20T02:25:21.517Z,4.9
2017-11-20T02:26:20.824Z,4.9
2017-11-20T02:28:18.499Z,4.9
2017-11-20T02:29:17.682Z,4.9
2017-11-20T02:34:12.908Z,4.9
2017-11-20T02:35:11.701Z,5
2017-11-20T02:37:10.009Z,5
2017-11-20T02:38:08.814Z,5
2017-11-20T02:39:08.117Z,5
2017-11-20T02:42:05.227Z,5
2017-11-20T02:44:03.513Z,5
2017-11-20T02:46:01.209Z,5
2017-11-20T02:47:59.511Z,5
2017-11-20T02:58:48.640Z,5
2017-11-20T03:00:59.470Z,5.1
2017-11-20T03:02:45.101Z,5.1
2017-11-20T03:05:42.188Z,5.1
2017-11-20T03:07:39.992Z,5.1
2017-11-20T03:10:37.070Z,5.1
2017-11-20T03:14:33.523Z,5
2017-11-20T03:16:31.113Z,5
2017-11-20T03:17:30.424Z,4.9
2017-11-20T03:19:28.736Z,4.8
2017-11-20T03:20:27.552Z,4.8
2017-11-20T03:21:26.764Z,4.7
2017-11-20T03:22:25.584Z,4.6
2017-11-20T03:23:24.799Z,4.6
2017-11-20T03:24:23.725Z,4.6
2017-11-20T03:25:22.434Z,4.5
2017-11-20T03:25:53.058Z,4.5
2017-11-20T03:26:23.685Z,4.5
2017-11-20T03:26:54.435Z,4.5
2017-11-20T03:27:24.690Z,4.5
2017-11-20T03:28:20.096Z,4.5
2017-11-20T03:30:18.206Z,4.5
2017-11-20T03:32:15.916Z,4.5
2017-11-20T03:35:12.985Z,4.5
2017-11-20T03:35:42.991Z,4.5
2017-11-20T03:36:13.722Z,4.5
2017-11-20T03:36:43.851Z,4.5
2017-11-20T03:37:14.485Z,4.5
2017-11-20T03:37:45.121Z,4.5
2017-11-20T03:39:09.116Z,4.4
2017-11-20T03:40:08.319Z,4.4
2017-11-20T03:43:05.308Z,4.4
2017-11-20T03:44:04.518Z,4.3
2017-11-20T03:45:03.104Z,4.3
2017-11-20T03:47:01.311Z,4.3
2017-11-20T03:48:00.667Z,4.3
2017-11-20T03:48:59.264Z,4.3
2017-11-20T03:49:58.704Z,4.3
2017-11-20T03:51:56.828Z,4.4
2017-11-20T03:52:55.765Z,4.3
2017-11-20T03:54:54.082Z,4.4
2017-11-20T03:56:51.580Z,4.4
2017-11-20T03:58:49.812Z,4.4
2017-11-20T03:59:49.114Z,4.4
2017-11-20T04:00:19.632Z,4.4
2017-11-20T04:01:47.118Z,4.4
2017-11-20T04:04:44.186Z,4.4
2017-11-20T04:05:42.972Z,4.4
2017-11-20T04:06:13.701Z,4.4
2017-11-20T04:07:41.182Z,4.5
2017-11-20T04:08:39.860Z,4.5
2017-11-20T04:09:39.181Z,4.5
2017-11-20T04:12:36.368Z,4.5
2017-11-20T04:13:35.198Z,4.5
2017-11-20T04:14:34.155Z,4.5
2017-11-20T04:17:31.222Z,4.6
2017-11-20T04:18:01.837Z,4.6
2017-11-20T04:18:32.333Z,4.6
2017-11-20T04:19:02.940Z,4.6
2017-11-20T04:21:27.403Z,4.6
2017-11-20T04:23:25.472Z,4.5
2017-11-20T04:24:24.874Z,4.6
2017-11-20T04:27:21.532Z,4.7
2017-11-20T04:29:19.704Z,4.6
2017-11-20T04:33:15.660Z,4.6
2017-11-20T04:35:13.862Z,4.5
2017-11-20T04:37:12.051Z,4.5
2017-11-20T04:39:10.343Z,4.6
2017-11-20T04:40:09.269Z,4.6
2017-11-20T04:41:07.875Z,4.6
2017-11-20T04:42:07.301Z,4.6
2017-11-20T04:44:04.966Z,4.6
2017-11-20T04:47:02.426Z,4.6
2017-11-20T04:49:59.480Z,4.6
2017-11-20T04:50:58.293Z,4.6
2017-11-20T04:58:50.762Z,4.6
2017-11-20T04:59:21.390Z,4.6
2017-11-20T05:00:48.750Z,4.6
2017-11-20T05:01:47.562Z,4.6
2017-11-20T05:02:46.968Z,4.6
2017-11-20T05:04:44.532Z,4.6
2017-11-20T05:05:43.494Z,4.6
2017-11-20T05:08:40.938Z,4.6
2017-11-20T05:11:37.894Z,4.6
2017-11-20T05:12:37.088Z,4.5
2017-11-20T05:16:32.936Z,4.5
2017-11-20T05:17:32.142Z,4.5
2017-11-20T05:18:30.966Z,4.5
2017-11-20T05:19:30.384Z,4.5
2017-11-20T05:20:29.074Z,4.5
2017-11-20T05:23:26.027Z,4.5
2017-11-20T05:24:25.322Z,4.5
2017-11-20T05:26:23.387Z,4.5
2017-11-20T05:27:22.292Z,4.5
2017-11-20T05:28:21.492Z,4.5
2017-11-20T05:29:20.174Z,4.5
2017-11-20T05:30:19.470Z,4.5
2017-11-20T05:31:18.266Z,4.5
2017-11-20T05:32:17.468Z,4.5
2017-11-20T05:33:16.902Z,4.5
2017-11-20T05:33:46.900Z,4.5
2017-11-20T05:34:17.506Z,4.5
2017-11-20T05:34:48.128Z,4.5
2017-11-20T05:36:13.604Z,4.6
2017-11-20T05:37:12.903Z,4.6
2017-11-20T05:38:11.703Z,4.7
2017-11-20T05:39:10.779Z,4.7
2017-11-20T05:40:10.077Z,4.7
2017-11-20T05:41:08.867Z,4.7
2017-11-20T05:42:07.774Z,4.7
2017-11-20T05:43:07.207Z,4.7
2017-11-20T05:44:05.979Z,4.7
2017-11-20T05:45:04.784Z,4.7
2017-11-20T05:46:03.885Z,4.7
2017-11-20T05:47:03.079Z,4.7
2017-11-20T05:48:01.997Z,4.7
2017-11-20T05:49:00.672Z,4.7
2017-11-20T05:49:59.858Z,4.7
2017-11-20T05:50:59.073Z,4.7
2017-11-20T05:51:57.748Z,4.7
2017-11-20T05:52:57.052Z,4.7
2017-11-20T05:53:56.388Z,4.7
2017-11-20T05:56:28.944Z,4.7
2017-11-20T05:56:30.984Z,4.7
2017-11-20T05:58:51.305Z,4.7
2017-11-20T06:00:49.391Z,4.6
2017-11-20T06:01:48.081Z,4.7
2017-11-20T06:02:47.388Z,4.6
2017-11-20T06:03:46.476Z,4.6
2017-11-20T06:04:45.173Z,4.7
2017-11-20T06:05:44.381Z,4.6
2017-11-20T06:06:43.793Z,4.6
2017-11-20T06:07:42.725Z,4.6
2017-11-20T06:08:41.426Z,4.6
2017-11-20T06:09:40.730Z,4.5
2017-11-20T06:10:39.535Z,4.5
2017-11-20T06:11:38.860Z,4.5
2017-11-20T06:12:37.539Z,4.5
2017-11-20T06:13:08.170Z,4.5
2017-11-20T06:14:35.437Z,4.4
2017-11-20T06:15:06.182Z,4.4
2017-11-20T06:15:36.580Z,4.4
2017-11-20T06:16:07.198Z,4.4
2017-11-20T06:16:37.709Z,4.4
2017-11-20T06:17:08.883Z,4.4
2017-11-20T06:18:32.065Z,4.4
2017-11-20T06:19:30.572Z,4.4
2017-11-20T06:20:30.014Z,4.4
2017-11-20T06:21:29.216Z,4.4
2017-11-20T06:23:26.917Z,4.4
2017-11-20T06:24:26.168Z,4.4
2017-11-20T06:25:25.706Z,4.4
2017-11-20T06:25:56.266Z,4.4
2017-11-20T06:26:26.670Z,4.3
2017-11-20T06:26:56.983Z,4.3
2017-11-20T06:28:21.845Z,4.3
2017-11-20T06:30:20.045Z,4.3
2017-11-20T06:31:19.261Z,4.3
2017-11-20T06:32:18.083Z,4.3
2017-11-20T06:34:16.045Z,4.2
2017-11-20T06:35:15.264Z,4.2
2017-11-20T06:36:14.062Z,4.2
2017-11-20T06:37:13.369Z,4.2
2017-11-20T06:38:12.291Z,4.2
2017-11-20T06:39:18.461Z,4.1
2017-11-20T06:40:10.622Z,4.1
2017-11-20T06:41:09.447Z,4.1
2017-11-20T06:42:08.254Z,4.1
2017-11-20T06:43:07.677Z,4.1
2017-11-20T06:44:06.604Z,4.1
2017-11-20T06:45:05.313Z,4.1
2017-11-20T06:46:04.432Z,4.1
2017-11-20T06:47:03.650Z,4.1
2017-11-20T06:48:02.340Z,4.1
2017-11-20T06:49:01.769Z,4.1
2017-11-20T06:50:00.245Z,4.1
2017-11-20T06:50:59.283Z,4.1
2017-11-20T06:51:58.530Z,4.1
2017-11-20T06:52:57.965Z,4.1
2017-11-20T06:54:56.273Z,4.1
2017-11-20T06:55:55.071Z,4.1
2017-11-20T06:57:52.751Z,4.1
2017-11-20T06:58:52.169Z,4.1
2017-11-20T06:59:50.971Z,4.1
2017-11-20T07:00:49.674Z,4.1
2017-11-20T07:01:48.875Z,4.1
2017-11-20T07:02:47.849Z,4.2
2017-11-20T07:03:47.334Z,4.2
2017-11-20T07:04:46.249Z,4.2
2017-11-20T07:05:16.655Z,4.2
2017-11-20T07:05:48.338Z,4.2
2017-11-20T07:06:18.024Z,4.2
2017-11-20T07:07:43.116Z,4.2
2017-11-20T07:08:42.040Z,4.2
2017-11-20T07:09:41.244Z,4.2
2017-11-20T07:12:22.103Z,4.2
2017-11-20T07:12:24.068Z,4.2
2017-11-20T07:14:36.250Z,4.2
2017-11-20T07:15:34.845Z,4.2
2017-11-20T07:16:34.171Z,4.3
2017-11-20T07:19:31.364Z,4.3
2017-11-20T07:20:30.172Z,4.3
2017-11-20T07:21:29.517Z,4.3
2017-11-20T07:23:27.742Z,4.3
2017-11-20T07:24:26.339Z,4.4
2017-11-20T07:25:25.768Z,4.4
2017-11-20T07:28:22.240Z,4.4
2017-11-20T07:29:21.543Z,4.4
2017-11-20T07:30:20.473Z,4.4
2017-11-20T07:31:19.685Z,4.5
2017-11-20T07:32:18.279Z,4.5
2017-11-20T07:33:17.720Z,4.5
2017-11-20T07:34:16.431Z,4.5
2017-11-20T07:35:15.754Z,4.5
2017-11-20T07:37:13.448Z,4.5
2017-11-20T07:38:12.659Z,4.5
2017-11-20T07:39:11.986Z,4.5
2017-11-20T07:40:10.694Z,4.5
2017-11-20T07:41:09.896Z,4.5
2017-11-20T07:42:08.632Z,4.5
2017-11-20T07:43:07.723Z,4.5
2017-11-20T07:44:07.168Z,4.5
2017-11-20T07:45:06.100Z,4.5
2017-11-20T07:46:04.579Z,4.5
2017-11-20T07:46:34.987Z,4.5
2017-11-20T07:47:05.561Z,4.5
2017-11-20T07:48:02.553Z,4.5
2017-11-20T07:49:01.650Z,4.5
2017-11-20T07:50:00.886Z,4.5
2017-11-20T07:51:00.197Z,4.5
2017-11-20T07:51:30.736Z,4.5
2017-11-20T07:52:01.246Z,4.4
2017-11-20T07:52:57.829Z,4.4
2017-11-20T07:53:57.147Z,4.4
2017-11-20T07:54:56.083Z,4.4
2017-11-20T07:55:55.174Z,4.4
2017-11-20T07:56:53.771Z,4.4
2017-11-20T07:57:52.857Z,4.4
2017-11-20T07:58:52.172Z,4.4
2017-11-20T07:59:51.160Z,4.4
2017-11-20T08:00:50.374Z,4.4
2017-11-20T08:01:20.889Z,4.4
2017-11-20T08:01:51.306Z,4.4
2017-11-20T08:02:21.768Z,4.4
2017-11-20T08:02:52.404Z,4.3
2017-11-20T08:03:47.111Z,4.3
2017-11-20T08:04:46.224Z,4.3
2017-11-20T08:06:44.324Z,4.3
2017-11-20T08:07:43.316Z,4.4
2017-11-20T08:08:42.521Z,4.4
2017-11-20T08:09:41.624Z,4.4
2017-11-20T08:10:40.221Z,4.4
2017-11-20T08:11:39.214Z,4.4
2017-11-20T08:12:38.649Z,4.4
2017-11-20T08:13:37.576Z,4.4
2017-11-20T08:14:36.286Z,4.4
2017-11-20T08:15:35.846Z,4.4
2017-11-20T08:16:34.790Z,4.4
2017-11-20T08:17:33.274Z,4.4
2017-11-20T08:18:32.595Z,4.4
2017-11-20T08:19:31.798Z,4.4
2017-11-20T08:20:30.404Z,4.4
2017-11-20T08:21:29.731Z,4.4
2017-11-20T08:22:28.994Z,4.4
2017-11-20T08:23:27.806Z,4.4
2017-11-20T08:24:26.737Z,4.4
2017-11-20T08:25:26.119Z,4.4
2017-11-20T08:26:24.951Z,4.4
2017-11-20T08:27:23.884Z,4.4
2017-11-20T08:28:22.874Z,4.4
2017-11-20T08:29:21.967Z,4.4
2017-11-20T08:30:20.562Z,4.4
2017-11-20T08:30:51.200Z,4.4
2017-11-20T08:32:19.216Z,4.4
2017-11-20T08:34:46.151Z,4.5
2017-11-20T08:34:48.089Z,4.5
2017-11-20T08:36:15.095Z,4.5
2017-11-20T08:37:14.519Z,4.5
2017-11-20T08:38:13.108Z,4.5
2017-11-20T08:39:12.193Z,4.5
2017-11-20T08:41:10.055Z,4.5
2017-11-20T08:42:10.935Z,4.5
2017-11-20T08:42:12.873Z,4.5
2017-11-20T08:42:43.271Z,4.5
2017-11-20T08:43:13.676Z,4.5
2017-11-20T08:43:44.306Z,4.5
2017-11-20T08:45:06.387Z,4.5
2017-11-20T08:46:04.977Z,4.5
2017-11-20T08:50:22.020Z,4.5
2017-11-20T08:52:51.870Z,4.6
2017-11-20T08:52:53.706Z,4.6
2017-11-20T08:53:57.661Z,4.6
2017-11-20T08:54:56.749Z,4.6
2017-11-20T08:55:55.555Z,4.6
2017-11-20T08:56:54.748Z,4.6
2017-11-20T08:57:53.542Z,4.6
2017-11-20T08:58:52.731Z,4.6
2017-11-20T08:59:51.705Z,4.6
2017-11-20T09:00:51.017Z,4.6
2017-11-20T09:01:49.934Z,4.6
2017-11-20T09:02:48.838Z,4.7
2017-11-20T09:03:48.151Z,4.6
2017-11-20T09:04:46.842Z,4.7
2017-11-20T09:05:46.035Z,4.7
2017-11-20T09:06:44.951Z,4.7
2017-11-20T09:07:43.868Z,4.7
2017-11-20T09:08:43.165Z,4.7
2017-11-20T09:09:41.966Z,4.7
2017-11-20T09:10:41.175Z,4.7
2017-11-20T09:11:40.100Z,4.7
2017-11-20T09:12:39.011Z,4.7
2017-11-20T09:13:38.425Z,4.7
2017-11-20T09:14:37.224Z,4.7
2017-11-20T09:15:36.039Z,4.7
2017-11-20T09:16:35.244Z,4.7
2017-11-20T09:17:34.558Z,4.7
2017-11-20T09:18:33.473Z,4.7
2017-11-20T09:19:32.283Z,4.8
2017-11-20T09:20:31.713Z,4.8
2017-11-20T09:21:01.980Z,4.8
2017-11-20T09:21:32.253Z,4.8
2017-11-20T09:22:02.145Z,4.8
2017-11-20T09:22:32.762Z,4.8
2017-11-20T09:23:03.273Z,4.8
2017-11-20T09:23:34.016Z,4.8
2017-11-20T09:24:03.904Z,4.8
2017-11-20T09:25:26.353Z,4.8
2017-11-20T09:26:25.654Z,4.8
2017-11-20T09:27:24.573Z,4.8
2017-11-20T09:28:23.996Z,4.8
2017-11-20T09:29:22.913Z,4.8
2017-11-20T09:30:21.632Z,4.8
2017-11-20T09:31:20.928Z,4.8
2017-11-20T09:31:50.826Z,4.8
2017-11-20T09:32:21.451Z,4.8
2017-11-20T09:32:51.951Z,4.8
2017-11-20T09:34:18.084Z,4.8
2017-11-20T09:35:16.900Z,4.8
2017-11-20T09:37:14.981Z,4.9
2017-11-20T09:38:13.703Z,4.9
2017-11-20T09:39:13.127Z,4.9
2017-11-20T09:40:11.923Z,4.9
2017-11-20T09:41:11.249Z,4.9
2017-11-20T09:42:09.830Z,4.9
2017-11-20T09:43:09.242Z,4.9
2017-11-20T09:44:08.156Z,4.9
2017-11-20T09:45:06.737Z,4.9
2017-11-20T09:46:05.947Z,4.9
2017-11-20T09:47:05.266Z,4.9
2017-11-20T09:48:04.205Z,4.9
2017-11-20T09:49:03.511Z,4.9
2017-11-20T09:50:02.311Z,4.9
2017-11-20T09:51:01.010Z,4.9
2017-11-20T09:52:00.453Z,5
2017-11-20T09:52:59.170Z,5
2017-11-20T09:53:58.372Z,5
2017-11-20T09:54:57.691Z,5
2017-11-20T09:55:56.513Z,5
2017-11-20T09:56:55.497Z,5
2017-11-20T09:57:54.801Z,4.9
2017-11-20T09:58:53.614Z,4.9
2017-11-20T09:59:52.698Z,4.9
2017-11-20T10:00:51.894Z,4.9
2017-11-20T10:01:50.804Z,4.9
2017-11-20T10:02:49.600Z,4.9
2017-11-20T10:03:20.346Z,4.9
2017-11-20T10:04:47.727Z,4.9
2017-11-20T10:05:47.039Z,4.9
2017-11-20T10:06:45.960Z,4.9
2017-11-20T10:07:44.756Z,4.9
2017-11-20T10:08:44.066Z,4.9
2017-11-20T10:09:42.989Z,4.9
2017-11-20T10:10:41.793Z,4.9
2017-11-20T10:11:40.989Z,4.9
2017-11-20T10:12:40.068Z,4.9
2017-11-20T10:13:39.262Z,4.9
2017-11-20T10:14:09.889Z,4.9
2017-11-20T10:14:40.386Z,4.9
2017-11-20T10:15:37.167Z,4.9
2017-11-20T10:16:36.464Z,4.9
2017-11-20T10:18:34.164Z,4.9
2017-11-20T10:19:33.352Z,4.9
2017-11-20T10:20:32.269Z,4.9
2017-11-20T10:21:31.728Z,4.9
2017-11-20T10:22:30.190Z,5
2017-11-20T10:23:29.499Z,5
2017-11-20T10:24:28.199Z,5
2017-11-20T10:25:27.505Z,5
2017-11-20T10:26:26.610Z,5
2017-11-20T10:27:25.306Z,5
2017-11-20T10:28:24.617Z,5
2017-11-20T10:29:23.821Z,5.1
2017-11-20T10:30:22.629Z,5.1
2017-11-20T10:32:20.813Z,5.2
2017-11-20T10:33:19.391Z,5.2
2017-11-20T10:34:18.590Z,5.2
2017-11-20T10:35:17.890Z,5.2
2017-11-20T10:36:17.318Z,5.2
2017-11-20T10:37:16.141Z,5.2
2017-11-20T10:38:14.938Z,5.2
2017-11-20T10:39:14.362Z,5.2
2017-11-20T10:40:12.834Z,5.3
2017-11-20T10:41:12.247Z,5.3
2017-11-20T10:42:11.061Z,5.3
2017-11-20T10:43:10.480Z,5.3
2017-11-20T10:44:09.296Z,5.3
2017-11-20T10:45:08.617Z,5.3
2017-11-20T10:46:07.432Z,5.2
2017-11-20T10:47:06.232Z,5.2
2017-11-20T10:48:05.541Z,5.3
2017-11-20T10:49:04.345Z,5.2
2017-11-20T10:50:03.552Z,5.2
2017-11-20T10:51:02.378Z,5.2
2017-11-20T10:52:01.573Z,5.3
2017-11-20T10:53:00.395Z,5.3
2017-11-20T10:53:59.319Z,5.2
2017-11-20T10:54:58.506Z,5.2
2017-11-20T10:55:57.941Z,5.3
2017-11-20T10:56:56.892Z,5.3
2017-11-20T10:57:55.587Z,5.3
2017-11-20T10:58:25.882Z,5.3
2017-11-20T10:58:56.522Z,5.2
2017-11-20T10:59:53.824Z,5.2
2017-11-20T11:00:53.123Z,5.3
2017-11-20T11:01:51.927Z,5.3
2017-11-20T11:02:50.728Z,5.3
2017-11-20T11:03:50.144Z,5.3
2017-11-20T11:04:49.056Z,5.3
2017-11-20T11:05:47.744Z,5.3
2017-11-20T11:06:46.948Z,5.3
2017-11-20T11:07:46.354Z,5.3
2017-11-20T11:08:45.056Z,5.3
2017-11-20T11:09:44.476Z,5.3
2017-11-20T11:10:43.164Z,5.2
2017-11-20T11:11:42.573Z,5.3
2017-11-20T11:12:41.489Z,5.3
2017-11-20T11:13:40.306Z,5.3
2017-11-20T11:14:39.291Z,5.3
2017-11-20T11:15:38.493Z,5.3
2017-11-20T11:16:37.410Z,5.3
2017-11-20T11:17:36.711Z,5.3
2017-11-20T11:18:35.403Z,5.3
2017-11-20T11:19:34.841Z,5.3
2017-11-20T11:20:33.761Z,5.3
2017-11-20T11:21:33.070Z,5.3
2017-11-20T11:22:31.878Z,5.4
2017-11-20T11:23:30.572Z,5.4
2017-11-20T11:24:29.661Z,5.4
2017-11-20T11:25:28.848Z,5.4
2017-11-20T11:26:28.149Z,5.4
2017-11-20T11:27:26.830Z,5.4
2017-11-20T11:28:26.256Z,5.4
2017-11-20T11:29:25.182Z,5.4
2017-11-20T11:30:23.985Z,5.4
2017-11-20T11:31:23.285Z,5.4
2017-11-20T11:32:21.889Z,5.4
2017-11-20T11:33:21.194Z,5.4
2017-11-20T11:34:20.104Z,5.4
2017-11-20T11:35:19.197Z,5.4
2017-11-20T11:36:18.378Z,5.4
2017-11-20T11:37:17.299Z,5.4
2017-11-20T11:37:47.202Z,5.4
2017-11-20T11:38:17.707Z,5.4
2017-11-20T11:38:48.443Z,5.4
2017-11-20T11:39:19.268Z,5.4
2017-11-20T11:39:48.768Z,5.4
2017-11-20T11:40:19.279Z,5.4
2017-11-20T11:41:14.880Z,5.4
2017-11-20T11:42:12.790Z,5.4
2017-11-20T11:43:11.744Z,5.4
2017-11-20T11:44:10.444Z,5.4
2017-11-20T11:45:09.862Z,5.4
2017-11-20T11:46:08.767Z,5.4
2017-11-20T11:47:07.670Z,5.5
2017-11-20T11:49:05.520Z,5.5
2017-11-20T11:50:04.966Z,5.5
2017-11-20T11:51:03.543Z,5.5
2017-11-20T11:52:02.874Z,5.5
2017-11-20T11:53:02.186Z,5.5
2017-11-20T11:54:01.105Z,5.6
2017-11-20T11:54:59.893Z,5.5
2017-11-20T11:55:58.977Z,5.6
2017-11-20T11:56:58.275Z,5.5
2017-11-20T11:57:57.063Z,5.5
2017-11-20T11:58:56.262Z,5.5
2017-11-20T11:59:55.184Z,5.6
2017-11-20T12:00:54.481Z,5.6
2017-11-20T12:01:53.174Z,5.6
2017-11-20T12:02:52.487Z,5.6
2017-11-20T12:03:51.177Z,5.6
2017-11-20T12:04:50.490Z,5.6
2017-11-20T12:05:49.397Z,5.6
2017-11-20T12:06:48.820Z,5.6
2017-11-20T12:07:47.742Z,5.6
2017-11-20T12:08:46.669Z,5.6
2017-11-20T12:09:45.257Z,5.6
2017-11-20T12:10:44.566Z,5.6
2017-11-20T12:11:43.978Z,5.6
2017-11-20T12:12:14.498Z,5.6
2017-11-20T12:12:45.104Z,5.7
2017-11-20T12:13:41.914Z,5.7
2017-11-20T12:14:40.613Z,5.7
2017-11-20T12:15:39.802Z,5.7
2017-11-20T12:16:39.222Z,5.6
2017-11-20T12:17:38.022Z,5.6
2017-11-20T12:19:36.236Z,5.6
2017-11-20T12:20:34.934Z,5.6
2017-11-20T12:21:34.364Z,5.6
2017-11-20T12:22:32.941Z,5.6
2017-11-20T12:23:32.356Z,5.6
2017-11-20T12:24:31.277Z,5.6
2017-11-20T12:26:29.483Z,5.7
2017-11-20T12:27:28.284Z,5.7
2017-11-20T12:28:27.370Z,5.7
2017-11-20T12:29:26.576Z,5.7
2017-11-20T12:30:25.487Z,5.7
2017-11-20T12:30:55.595Z,5.7
2017-11-20T12:32:23.494Z,5.7
2017-11-20T12:34:21.680Z,5.7
2017-11-20T12:35:21.116Z,5.7
2017-11-20T12:36:19.917Z,5.7
2017-11-20T12:37:18.715Z,5.7
2017-11-20T12:38:18.030Z,5.7
2017-11-20T12:39:16.828Z,5.7
2017-11-20T12:40:16.146Z,5.7
2017-11-20T12:41:14.945Z,5.7
2017-11-20T12:42:14.257Z,5.7
2017-11-20T12:43:13.095Z,5.7
2017-11-20T12:44:12.091Z,5.8
2017-11-20T12:45:11.295Z,5.8
2017-11-20T12:47:09.656Z,5.8
2017-11-20T12:48:08.375Z,5.7
2017-11-20T12:49:07.787Z,5.8
2017-11-20T12:50:06.485Z,5.8
2017-11-20T12:51:05.580Z,5.7
2017-11-20T12:52:04.671Z,5.7
2017-11-20T12:53:03.480Z,5.7
2017-11-20T12:54:02.790Z,5.7
2017-11-20T12:55:01.605Z,5.7
2017-11-20T12:56:00.903Z,5.7
2017-11-20T12:56:59.595Z,5.7
2017-11-20T12:57:58.789Z,5.7
2017-11-20T12:59:57.081Z,5.7
2017-11-20T13:00:55.891Z,5.7
2017-11-20T13:01:55.205Z,5.7
2017-11-20T13:02:54.124Z,5.7
2017-11-20T13:03:52.818Z,5.7
2017-11-20T13:04:52.118Z,5.7
2017-11-20T13:05:51.614Z,5.7
2017-11-20T13:06:22.014Z,5.7
2017-11-20T13:06:52.636Z,5.7
2017-11-20T13:07:22.864Z,5.7
2017-11-20T13:08:48.236Z,5.7
2017-11-20T13:09:47.689Z,5.7
2017-11-20T13:10:46.382Z,5.7
2017-11-20T13:12:44.675Z,5.7
2017-11-20T13:13:43.505Z,5.7
2017-11-20T13:14:42.703Z,5.6
2017-11-20T13:15:42.017Z,5.6
2017-11-20T13:16:40.963Z,5.6
2017-11-20T13:17:39.756Z,5.6
2017-11-20T13:18:38.963Z,5.6
2017-11-20T13:19:37.891Z,5.6
2017-11-20T13:21:35.965Z,5.6
2017-11-20T13:22:34.867Z,5.6
2017-11-20T13:23:34.276Z,5.6
2017-11-20T13:24:33.070Z,5.6
2017-11-20T13:25:32.498Z,5.5
2017-11-20T13:26:31.292Z,5.6
2017-11-20T13:27:30.200Z,5.6
2017-11-20T13:29:28.384Z,5.5
2017-11-20T13:30:27.291Z,5.5
2017-11-20T13:31:26.493Z,5.5
2017-11-20T13:32:25.308Z,5.5
2017-11-20T13:33:24.632Z,5.5
2017-11-20T13:34:23.549Z,5.5
2017-11-20T13:35:22.236Z,5.5
2017-11-20T13:36:21.424Z,5.5
2017-11-20T13:37:20.744Z,5.5
2017-11-20T13:38:19.843Z,5.4
2017-11-20T13:39:18.530Z,5.4
2017-11-20T13:41:16.838Z,5.5
2017-11-20T13:42:16.071Z,5.4
2017-11-20T13:43:14.774Z,5.4
2017-11-20T13:44:13.988Z,5.4
2017-11-20T13:45:13.291Z,5.4
2017-11-20T13:46:11.862Z,5.3
2017-11-20T13:46:42.477Z,5.3
2017-11-20T13:47:12.876Z,5.3
2017-11-20T13:47:43.540Z,5.3
2017-11-20T13:48:14.158Z,5.3
2017-11-20T13:48:44.379Z,5.3
2017-11-20T13:49:15.015Z,5.3
2017-11-20T13:49:45.025Z,5.3
2017-11-20T13:51:07.605Z,5.3
2017-11-20T13:52:06.078Z,5.2
2017-11-20T13:53:05.167Z,5.2
2017-11-20T13:54:04.485Z,5.2
2017-11-20T13:55:03.185Z,5.2
2017-11-20T13:56:02.498Z,5.1
2017-11-20T13:57:01.906Z,5.1
2017-11-20T13:58:00.716Z,5.1
2017-11-20T13:58:59.414Z,5.1
2017-11-20T13:59:58.615Z,5.1
2017-11-20T14:00:29.356Z,5.1
2017-11-20T14:00:59.265Z,5.1
2017-11-20T14:01:56.969Z,5.1
2017-11-20T14:02:55.894Z,5.1
2017-11-20T14:03:54.816Z,5.1
2017-11-20T14:04:54.269Z,5.1
2017-11-20T14:05:53.175Z,5
2017-11-20T14:06:51.903Z,5
2017-11-20T14:07:51.218Z,5
2017-11-20T14:08:50.023Z,4.9
2017-11-20T14:09:49.220Z,4.9
2017-11-20T14:10:48.024Z,4.9
2017-11-20T14:11:47.220Z,4.9
2017-11-20T14:12:45.806Z,4.9
2017-11-20T14:13:45.256Z,4.8
2017-11-20T14:14:44.185Z,4.8
2017-11-20T14:15:43.380Z,4.8
2017-11-20T14:17:41.458Z,4.8
2017-11-20T14:18:40.380Z,4.8
2017-11-20T14:20:38.680Z,4.7
2017-11-20T14:21:37.605Z,4.7
2017-11-20T14:22:36.305Z,4.7
2017-11-20T14:23:35.514Z,4.7
2017-11-20T14:24:34.720Z,4.6
2017-11-20T14:25:33.641Z,4.6
2017-11-20T14:26:33.066Z,4.6
2017-11-20T14:27:31.976Z,4.6
2017-11-20T14:28:02.090Z,4.6
2017-11-20T14:28:32.632Z,4.5
2017-11-20T14:29:29.824Z,4.5
2017-11-20T14:30:00.330Z,4.5
2017-11-20T14:30:31.060Z,4.5
2017-11-20T14:31:27.738Z,4.5
2017-11-20T14:32:27.158Z,4.5
2017-11-20T14:33:25.953Z,4.5
2017-11-20T14:34:25.255Z,4.5
2017-11-20T14:35:24.170Z,4.4
2017-11-20T14:36:23.082Z,4.4
2017-11-20T14:37:22.296Z,4.4
2017-11-20T14:38:20.988Z,4.4
2017-11-20T14:39:20.100Z,4.4
2017-11-20T14:40:19.413Z,4.4
2017-11-20T14:41:18.227Z,4.4
2017-11-20T14:42:17.526Z,4.3
2017-11-20T14:43:16.333Z,4.3
2017-11-20T14:44:15.532Z,4.3
2017-11-20T14:45:14.228Z,4.3
2017-11-20T14:46:13.425Z,4.3
2017-11-20T14:47:12.874Z,4.3
2017-11-20T14:48:11.786Z,4.3
2017-11-20T14:49:10.505Z,4.3
2017-11-20T14:50:09.822Z,4.3
2017-11-20T14:51:08.765Z,4.3
2017-11-20T14:52:07.466Z,4.2
2017-11-20T14:53:06.539Z,4.2
2017-11-20T14:54:05.621Z,4.2
2017-11-20T14:55:04.698Z,4.2
2017-11-20T14:56:03.776Z,4.2
2017-11-20T14:57:02.983Z,4.2
2017-11-20T14:58:01.800Z,4.2
2017-11-20T14:59:01.221Z,4.2
2017-11-20T14:59:59.910Z,4.2
2017-11-20T15:00:58.713Z,4.2
2017-11-20T15:01:58.015Z,4.2
2017-11-20T15:02:57.093Z,4.2
2017-11-20T15:03:55.800Z,4.2
2017-11-20T15:04:55.125Z,4.1
2017-11-20T15:05:54.044Z,4.1
2017-11-20T15:06:53.246Z,4.1
2017-11-20T15:07:52.052Z,4.1
2017-11-20T15:08:51.252Z,4.1
2017-11-20T15:09:50.047Z,4.1
2017-11-20T15:10:49.469Z,4.1
2017-11-20T15:11:48.050Z,4.1
2017-11-20T15:12:47.358Z,4.1
2017-11-20T15:13:46.048Z,4
2017-11-20T15:14:45.470Z,4
2017-11-20T15:15:44.281Z,4
2017-11-20T15:16:43.700Z,4
2017-11-20T15:17:42.405Z,4
2017-11-20T15:18:41.090Z,4
2017-11-20T15:19:40.510Z,4
2017-11-20T15:20:39.302Z,4
2017-11-20T15:21:38.384Z,4
2017-11-20T15:22:37.704Z,4
2017-11-20T15:24:35.390Z,4
2017-11-20T15:25:05.796Z,4
2017-11-20T15:25:36.295Z,4
2017-11-20T15:26:33.359Z,4
2017-11-20T15:27:32.564Z,4
2017-11-20T15:28:31.870Z,4
2017-11-20T15:29:30.695Z,4
2017-11-20T15:30:29.517Z,4
2017-11-20T15:31:28.717Z,4
2017-11-20T15:32:28.023Z,4
2017-11-20T15:33:26.722Z,4
2017-11-20T15:33:57.450Z,4
2017-11-20T15:35:24.944Z,4
2017-11-20T15:37:23.017Z,3.9
2017-11-20T15:39:20.697Z,3.9
2017-11-20T15:40:19.758Z,3.9
2017-11-20T15:41:18.960Z,3.9
2017-11-20T15:42:17.773Z,3.9
2017-11-20T15:43:17.074Z,3.9
2017-11-20T15:44:15.889Z,3.9
2017-11-20T15:45:15.204Z,3.9
2017-11-20T15:46:14.136Z,3.9
2017-11-20T15:47:13.049Z,3.9
2017-11-20T15:49:11.394Z,3.9
2017-11-20T15:50:10.304Z,3.9
2017-11-20T15:51:09.210Z,3.8
2017-11-20T15:52:08.016Z,3.9
2017-11-20T15:53:07.489Z,3.9
2017-11-20T15:55:05.195Z,3.8
2017-11-20T15:57:03.510Z,3.8
2017-11-20T15:58:02.428Z,3.8
2017-11-20T15:59:01.241Z,3.8
2017-11-20T16:00:00.435Z,3.8
2017-11-20T16:01:58.626Z,3.7
2017-11-20T16:02:57.424Z,3.7
2017-11-20T16:03:27.933Z,3.7
2017-11-20T16:03:58.457Z,3.7
2017-11-20T16:04:29.083Z,3.7
2017-11-20T16:04:59.810Z,3.7
2017-11-20T16:05:29.922Z,3.7
2017-11-20T16:06:00.438Z,3.7
2017-11-20T16:06:31.199Z,3.7
2017-11-20T16:07:52.688Z,3.7
2017-11-20T16:08:51.382Z,3.7
2017-11-20T16:09:50.702Z,3.6
2017-11-20T16:21:38.607Z,3.6
2017-11-20T16:23:36.815Z,3.6
2017-11-20T16:24:35.740Z,3.6
2017-11-20T16:26:34.030Z,3.6
2017-11-20T16:29:31.211Z,3.6
2017-11-20T16:32:27.673Z,3.5
2017-11-20T16:40:20.049Z,3.5
2017-11-20T16:45:15.296Z,3.5
2017-11-20T16:45:45.686Z,3.5
2017-11-20T16:55:05.354Z,3.5
2017-11-20T16:55:35.469Z,3.5
2017-11-20T16:58:02.227Z,3.5
2017-11-20T16:59:01.637Z,3.5